Time;durP1;ratioP1;P1;durP2;ratioP2;P2;SDS_P1;SDS_P2;PMS_P1;PMS_P2;Temp;Humidity;BMP_temperature;BMP_pressure;BME280_temperature;BME280_humidity;BME280_pressure;Samples;Min_cycle;Max_cycle;Signal;HPM_P1;HPM_P2
2024/02/09 00:00:12;;;;;;;3.90;1.63;;;9.40;99.90;;;;;;5073425;28;20623;-66
2024/02/09 00:02:42;;;;;;;0.90;0.85;;;9.30;99.90;;;;;;5073562;28;20623;-66
2024/02/09 00:05:09;;;;;;;2.22;1.45;;;9.30;99.90;;;;;;5073279;28;20170;-66
2024/02/09 00:07:35;;;;;;;2.25;1.95;;;9.40;99.90;;;;;;5073045;28;20177;-66
2024/02/09 00:10:01;;;;;;;6.67;1.63;;;9.40;99.90;;;;;;5073229;28;20161;-66
2024/02/09 00:12:27;;;;;;;4.95;2.20;;;9.40;99.90;;;;;;5073048;28;20191;-66
2024/02/09 00:14:53;;;;;;;2.85;2.53;;;9.30;99.90;;;;;;5073153;28;20169;-66
2024/02/09 00:17:18;;;;;;;5.40;1.70;;;9.30;99.90;;;;;;5072646;28;20220;-66
2024/02/09 00:19:44;;;;;;;1.97;1.77;;;9.30;99.90;;;;;;5073014;28;20165;-66
2024/02/09 00:22:12;;;;;;;3.10;1.37;;;9.30;99.90;;;;;;5073040;28;20174;-66
2024/02/09 00:24:42;;;;;;;2.65;2.42;;;9.30;99.90;;;;;;5072988;28;20704;-66
2024/02/09 00:27:11;;;;;;;1.10;1.10;;;9.20;99.90;;;;;;5072983;28;20212;-66
2024/02/09 00:29:37;;;;;;;4.15;1.63;;;9.20;99.90;;;;;;5072711;28;20177;-66
2024/02/09 00:32:07;;;;;;;8.43;1.33;;;9.30;99.90;;;;;;5072459;28;20181;-66
2024/02/09 00:34:34;;;;;;;3.63;2.22;;;9.30;99.90;;;;;;5072818;28;20174;-66
2024/02/09 00:37:03;;;;;;;2.47;1.95;;;9.30;99.90;;;;;;5072167;28;20292;-66
2024/02/09 00:39:33;;;;;;;4.65;2.00;;;9.40;99.90;;;;;;5072502;28;20192;-66
2024/02/09 00:42:01;;;;;;;3.65;1.65;;;9.40;99.90;;;;;;5072605;28;20169;-66
2024/02/09 00:44:26;;;;;;;3.45;1.42;;;9.30;99.90;;;;;;5072619;28;20253;-66
2024/02/09 00:46:52;;;;;;;1.80;1.30;;;9.30;99.90;;;;;;5072166;28;20224;-66
2024/02/09 00:49:18;;;;;;;2.83;1.87;;;9.30;99.90;;;;;;5072472;28;20603;-66
2024/02/09 00:51:45;;;;;;;3.20;2.00;;;9.40;99.90;;;;;;5072457;28;20167;-66
2024/02/09 00:54:14;;;;;;;3.08;1.52;;;9.30;99.90;;;;;;5071083;28;20173;-66
2024/02/09 00:56:40;;;;;;;5.55;1.90;;;9.20;99.90;;;;;;5072099;28;20243;-66
2024/02/09 00:59:05;;;;;;;3.45;2.10;;;9.20;99.90;;;;;;5072647;28;20202;-66
2024/02/09 01:01:32;;;;;;;2.70;2.00;;;9.30;99.90;;;;;;5072203;28;20210;-66
2024/02/09 01:04:00;;;;;;;8.60;2.60;;;9.30;99.90;;;;;;5072633;28;20177;-66
2024/02/09 01:06:26;;;;;;;1.63;1.52;;;9.30;99.90;;;;;;5071632;28;20742;-66
2024/02/09 01:08:52;;;;;;;3.78;1.35;;;9.30;99.90;;;;;;5071998;28;20550;-66
2024/02/09 01:11:18;;;;;;;1.87;1.40;;;9.30;99.90;;;;;;5072153;28;20181;-66
2024/02/09 02:46:34;;;;;;;1.83;1.60;;;9.60;99.90;;;;;;5070574;28;20259;-66
2024/02/09 03:05:27;;;;;;;2.00;1.40;;;9.40;99.90;;;;;;5074613;28;20193;-66
2024/02/09 03:07:56;;;;;;;2.45;1.55;;;9.40;99.90;;;;;;5074119;28;20174;-66
2024/02/09 03:10:22;;;;;;;1.38;1.27;;;9.30;99.90;;;;;;5074587;28;20177;-66
2024/02/09 03:12:49;;;;;;;2.33;1.65;;;9.30;99.90;;;;;;5074549;28;20791;-66
2024/02/09 03:15:15;;;;;;;1.67;1.30;;;9.30;99.90;;;;;;5074183;28;20185;-66
2024/02/09 03:17:43;;;;;;;1.50;1.40;;;9.30;99.90;;;;;;5073815;28;20201;-66
2024/02/09 03:20:10;;;;;;;2.25;2.05;;;9.40;99.90;;;;;;5074157;28;20445;-66
2024/02/09 03:22:36;;;;;;;3.47;1.67;;;9.40;99.90;;;;;;5072867;28;20183;-66
2024/02/09 03:25:03;;;;;;;1.97;1.23;;;9.30;99.90;;;;;;5074081;28;20169;-66
2024/02/09 03:27:33;;;;;;;1.50;1.40;;;9.30;99.90;;;;;;5074042;28;20170;-66
2024/02/09 03:30:03;;;;;;;3.25;1.60;;;9.30;99.90;;;;;;5074071;28;20174;-66
2024/02/09 03:32:32;;;;;;;1.40;1.30;;;9.30;99.90;;;;;;5073971;28;20173;-66
2024/02/09 03:34:59;;;;;;;2.97;1.80;;;9.30;99.90;;;;;;5073974;28;20186;-66
2024/02/09 03:37:26;;;;;;;1.67;1.58;;;9.30;99.90;;;;;;5073914;28;20205;-65
2024/02/09 03:39:55;;;;;;;1.35;1.25;;;9.40;99.90;;;;;;5074802;28;20231;-65
2024/02/09 03:42:22;;;;;;;2.25;1.67;;;9.40;99.90;;;;;;5074695;28;20264;-65
2024/02/09 03:44:58;;;;;;;1.52;1.10;;;9.30;99.90;;;;;;5074761;28;20646;-65
2024/02/09 03:47:27;;;;;;;2.40;1.75;;;9.20;99.90;;;;;;5074518;28;20193;-64
2024/02/09 03:49:56;;;;;;;1.42;1.33;;;9.20;99.90;;;;;;5073705;28;20173;-63
2024/02/09 03:52:23;;;;;;;3.35;1.50;;;9.20;99.90;;;;;;5074308;28;20169;-65
2024/02/09 03:54:53;;;;;;;1.75;1.50;;;9.20;99.90;;;;;;5074442;28;20177;-65
2024/02/09 03:57:23;;;;;;;1.40;1.35;;;9.30;99.90;;;;;;5073954;28;20215;-65
2024/02/09 03:59:50;;;;;;;1.77;1.25;;;9.20;99.90;;;;;;5074275;28;20655;-65
2024/02/09 04:02:20;;;;;;;1.33;1.23;;;9.30;99.90;;;;;;5074152;28;20549;-65
2024/02/09 04:04:47;;;;;;;5.85;1.40;;;9.30;99.90;;;;;;5074248;28;20182;-65
2024/02/09 04:07:20;;;;;;;3.28;1.00;;;9.40;99.90;;;;;;5073231;28;20201;-65
2024/02/09 04:09:47;;;;;;;1.88;1.23;;;9.30;99.90;;;;;;5074065;28;20658;-64
2024/02/09 04:12:13;;;;;;;1.40;1.05;;;9.30;99.90;;;;;;5074066;28;20187;-65
2024/02/09 04:14:38;;;;;;;1.50;1.40;;;9.30;99.90;;;;;;5073887;28;20174;-65
2024/02/09 04:17:07;;;;;;;1.80;1.50;;;9.30;99.90;;;;;;5073485;28;20204;-65
2024/02/09 04:19:38;;;;;;;1.23;1.10;;;9.20;99.90;;;;;;5073948;28;20177;-65
2024/02/09 04:22:08;;;;;;;3.95;1.35;;;9.00;99.90;;;;;;5072737;28;20177;-65
2024/02/09 04:24:36;;;;;;;2.90;1.05;;;9.00;99.90;;;;;;5074024;28;20197;-65
2024/02/09 04:27:03;;;;;;;0.70;0.70;;;9.00;99.90;;;;;;5073862;28;20246;-64
2024/02/09 04:29:28;;;;;;;1.58;1.40;;;9.10;99.90;;;;;;5073996;28;20177;-65
2024/02/09 04:31:55;;;;;;;1.10;1.00;;;9.00;99.90;;;;;;5073827;28;20552;-64
2024/02/09 04:34:21;;;;;;;1.95;1.65;;;8.90;99.90;;;;;;5073666;28;20172;-65
2024/02/09 04:36:47;;;;;;;5.13;1.83;;;8.90;99.90;;;;;;5073077;28;20217;-65
2024/02/09 04:39:14;;;;;;;4.88;1.35;;;8.80;99.90;;;;;;5073901;28;20158;-65
2024/02/09 04:41:43;;;;;;;1.27;1.17;;;8.70;99.90;;;;;;5073816;28;20651;-64
2024/02/09 04:44:09;;;;;;;2.67;1.15;;;8.60;99.90;;;;;;5073658;28;20181;-66
2024/02/09 04:46:35;;;;;;;1.77;0.90;;;8.60;99.90;;;;;;5073467;28;20696;-65
2024/02/09 04:49:02;;;;;;;1.42;1.10;;;8.60;99.90;;;;;;5073512;28;20808;-65
2024/02/09 04:51:33;;;;;;;1.27;1.17;;;8.60;99.90;;;;;;5073591;28;20177;-65
2024/02/09 04:53:59;;;;;;;1.60;1.15;;;8.60;99.90;;;;;;5073580;28;20234;-65
2024/02/09 04:56:29;;;;;;;2.03;1.90;;;8.60;99.90;;;;;;5071813;28;20248;-65
2024/02/09 04:58:59;;;;;;;1.30;1.20;;;8.70;99.90;;;;;;5073417;28;20180;-65
2024/02/09 05:01:28;;;;;;;1.45;1.00;;;8.60;99.90;;;;;;5073196;28;20169;-65
2024/02/09 05:03:58;;;;;;;1.30;1.20;;;8.80;99.90;;;;;;5072977;28;20219;-65
2024/02/09 05:06:24;;;;;;;3.63;1.55;;;8.90;99.90;;;;;;5072640;28;20193;-64
2024/02/09 05:08:54;;;;;;;3.45;1.40;;;8.80;99.90;;;;;;5073075;28;20181;-65
2024/02/09 05:11:23;;;;;;;2.83;1.33;;;8.80;99.90;;;;;;5073081;28;20639;-65
2024/02/09 05:13:49;;;;;;;1.50;1.27;;;8.80;99.90;;;;;;5072740;28;20170;-64
2024/02/09 05:16:19;;;;;;;1.30;1.00;;;8.80;99.90;;;;;;5060181;28;20301;-65
2024/02/09 05:18:44;;;;;;;1.85;1.35;;;8.70;99.90;;;;;;5051881;28;20202;-65
2024/02/09 05:21:11;;;;;;;3.87;1.97;;;8.80;99.90;;;;;;5053034;28;20209;-64
2024/02/09 05:23:38;;;;;;;1.42;1.00;;;8.70;99.90;;;;;;5052888;28;20177;-65
2024/02/09 05:26:07;;;;;;;1.77;1.35;;;8.70;99.90;;;;;;5052851;28;20560;-65
2024/02/09 05:28:40;;;;;;;2.38;1.20;;;8.80;99.90;;;;;;5051483;28;20552;-64
2024/02/09 05:31:11;;;;;;;3.33;1.38;;;8.90;99.90;;;;;;5044619;28;20558;-65
2024/02/09 05:33:37;;;;;;;1.75;1.20;;;9.00;99.90;;;;;;5049477;28;20178;-65
2024/02/09 05:36:04;;;;;;;2.13;1.00;;;9.00;99.90;;;;;;5046477;28;20236;-64
2024/02/09 05:38:32;;;;;;;4.32;1.20;;;9.10;99.90;;;;;;5045986;28;20170;-65
2024/02/09 05:40:59;;;;;;;2.08;1.45;;;9.20;99.90;;;;;;5050049;28;20193;-64
2024/02/09 05:43:25;;;;;;;1.35;1.10;;;9.20;99.90;;;;;;5047041;28;20183;-65
2024/02/09 05:45:51;;;;;;;1.02;0.90;;;9.20;99.90;;;;;;5047998;28;20210;-65
2024/02/09 05:48:16;;;;;;;0.60;0.60;;;9.30;99.90;;;;;;5050270;28;20182;-65
2024/02/09 05:50:42;;;;;;;0.90;0.90;;;9.30;99.90;;;;;;5047616;28;20182;-65
2024/02/09 05:53:08;;;;;;;2.43;0.87;;;9.30;99.90;;;;;;5046559;28;20183;-65
2024/02/09 05:55:34;;;;;;;1.63;1.53;;;9.30;99.90;;;;;;5048662;28;20578;-65
2024/02/09 05:58:03;;;;;;;1.20;0.80;;;9.30;99.90;;;;;;5047263;28;20436;-65
2024/02/09 06:00:28;;;;;;;1.02;0.70;;;9.40;99.90;;;;;;5048840;28;20182;-65
2024/02/09 06:02:55;;;;;;;0.60;0.60;;;9.30;99.90;;;;;;5049491;28;20405;-66
2024/02/09 06:05:20;;;;;;;5.72;0.90;;;9.30;99.90;;;;;;5055484;28;20658;-65
2024/02/09 06:07:48;;;;;;;0.53;0.53;;;9.20;99.90;;;;;;5063413;28;20241;-66
2024/02/09 06:10:14;;;;;;;0.70;0.70;;;9.20;99.90;;;;;;5072233;28;20234;-65
2024/02/09 06:12:43;;;;;;;1.17;1.05;;;9.30;99.90;;;;;;5072283;28;20168;-66
2024/02/09 06:15:10;;;;;;;1.33;1.15;;;9.30;99.90;;;;;;5071024;28;20184;-65
2024/02/09 06:17:40;;;;;;;1.40;1.10;;;9.20;99.90;;;;;;5072306;28;20197;-65
2024/02/09 06:20:07;;;;;;;1.00;0.90;;;9.20;99.90;;;;;;5072227;28;20169;-65
2024/02/09 06:22:34;;;;;;;5.13;1.30;;;9.20;99.90;;;;;;5072239;28;20170;-65
2024/02/09 06:25:00;;;;;;;2.90;0.95;;;9.20;99.90;;;;;;5072284;28;20180;-65
2024/02/09 06:27:26;;;;;;;0.73;0.73;;;9.20;99.90;;;;;;5072005;28;20235;-65
2024/02/09 06:29:54;;;;;;;4.03;1.38;;;9.20;99.90;;;;;;5058125;28;20182;-65
2024/02/09 06:32:21;;;;;;;1.88;1.27;;;9.30;99.90;;;;;;5056456;28;20183;-65
2024/02/09 06:34:47;;;;;;;2.50;1.05;;;9.30;99.90;;;;;;5054826;28;20171;-65
2024/02/09 06:37:18;;;;;;;1.20;1.10;;;9.30;99.90;;;;;;5048766;28;20233;-61
2024/02/09 06:39:45;;;;;;;0.85;0.60;;;9.30;99.90;;;;;;5055543;28;20259;-62
2024/02/09 06:42:10;;;;;;;3.72;1.90;;;9.30;99.90;;;;;;5053311;28;20232;-61
2024/02/09 06:44:43;;;;;;;2.50;1.13;;;9.40;99.90;;;;;;5055757;28;20174;-63
2024/02/09 06:47:12;;;;;;;3.60;1.60;;;9.60;99.90;;;;;;5051213;28;20197;-63
2024/02/09 06:49:43;;;;;;;1.50;1.40;;;9.80;99.90;;;;;;5050234;28;20190;-62
2024/02/09 06:52:09;;;;;;;2.97;1.58;;;10.10;99.90;;;;;;5045263;28;20178;-62
2024/02/09 06:54:34;;;;;;;10.47;1.80;;;10.30;99.90;;;;;;5051610;28;20240;-62
2024/02/09 06:57:00;;;;;;;2.37;1.27;;;10.50;99.90;;;;;;5052991;28;20210;-62
2024/02/09 06:59:26;;;;;;;2.10;1.17;;;10.70;99.90;;;;;;5050085;28;20170;-63
2024/02/09 07:01:53;;;;;;;2.93;1.90;;;10.90;99.90;;;;;;5051062;28;20167;-62
2024/02/09 07:04:18;;;;;;;1.47;1.37;;;11.10;99.90;;;;;;5060411;28;20519;-65
2024/02/09 07:06:48;;;;;;;2.30;2.10;;;11.20;99.90;;;;;;5064628;28;20472;-65
2024/02/09 07:09:18;;;;;;;2.43;1.53;;;11.30;99.90;;;;;;5066654;28;20273;-64
2024/02/09 07:11:53;;;;;;;1.90;1.30;;;11.20;99.90;;;;;;5074819;28;20403;-64
2024/02/09 07:14:19;;;;;;;1.43;1.20;;;11.00;99.90;;;;;;5075013;28;20414;-65
2024/02/09 07:16:49;;;;;;;1.63;0.90;;;10.80;99.90;;;;;;5074917;28;20540;-64
2024/02/09 07:19:15;;;;;;;2.33;0.80;;;10.60;99.90;;;;;;5074710;28;20789;-64
2024/02/09 07:21:40;;;;;;;0.70;0.70;;;10.40;99.90;;;;;;5074862;28;20403;-65
2024/02/09 07:24:07;;;;;;;1.90;1.23;;;10.20;99.90;;;;;;5071301;28;20170;-64
2024/02/09 07:26:33;;;;;;;2.43;2.23;;;10.10;99.90;;;;;;5062252;28;20238;-65
2024/02/09 07:28:59;;;;;;;2.90;2.20;;;10.10;99.90;;;;;;5073880;28;20975;-64
2024/02/09 07:31:25;;;;;;;2.85;2.65;;;10.00;99.90;;;;;;5056541;28;20181;-64
2024/02/09 07:33:52;;;;;;;11.65;6.13;;;10.00;99.90;;;;;;5065813;28;20621;-64
2024/02/09 07:36:18;;;;;;;4.90;4.13;;;9.90;99.90;;;;;;5066032;28;20297;-64
2024/02/09 07:38:43;;;;;;;6.23;4.20;;;9.90;99.90;;;;;;5060890;28;20166;-65
2024/02/09 07:41:11;;;;;;;4.13;3.73;;;9.90;99.90;;;;;;5055453;28;20409;-65
2024/02/09 07:43:36;;;;;;;3.70;3.40;;;9.90;99.90;;;;;;5070948;28;20639;-65
2024/02/09 07:46:04;;;;;;;5.10;3.50;;;9.80;99.90;;;;;;5074145;28;20478;-63
2024/02/09 07:48:30;;;;;;;2.10;1.63;;;9.80;99.90;;;;;;5074493;28;20478;-65
2024/02/09 07:50:57;;;;;;;2.30;2.13;;;9.80;99.90;;;;;;5063588;28;20475;-64
2024/02/09 07:53:23;;;;;;;2.55;1.75;;;9.80;99.90;;;;;;5068855;28;20791;-65
2024/02/09 07:55:49;;;;;;;2.80;1.13;;;9.90;99.90;;;;;;5073883;28;20189;-64
2024/02/09 07:58:16;;;;;;;3.60;1.70;;;9.80;99.90;;;;;;5073491;28;20303;-64
2024/02/09 08:00:42;;;;;;;3.35;2.92;;;9.80;99.90;;;;;;5069552;28;20189;-64
2024/02/09 08:03:10;;;;;;;2.23;2.03;;;9.90;99.90;;;;;;5066503;28;20596;-64
2024/02/09 08:05:37;;;;;;;5.57;2.10;;;9.90;99.90;;;;;;5073874;28;20511;-64
2024/02/09 08:08:03;;;;;;;2.15;2.03;;;10.00;99.90;;;;;;5073428;28;20249;-65
2024/02/09 08:10:32;;;;;;;2.40;2.20;;;10.00;99.90;;;;;;5073803;28;20172;-65
2024/02/09 08:12:58;;;;;;;4.30;1.87;;;10.00;99.90;;;;;;5073879;28;20435;-64
2024/02/09 08:15:24;;;;;;;3.27;1.67;;;9.90;99.90;;;;;;5073505;28;20449;-65
2024/02/09 08:17:50;;;;;;;2.50;1.60;;;9.90;99.90;;;;;;5073200;28;20451;-65
2024/02/09 08:20:16;;;;;;;5.80;4.30;;;10.00;99.90;;;;;;5049805;28;20166;-64
2024/02/09 08:22:44;;;;;;;6.87;6.00;;;10.00;99.90;;;;;;5044090;28;20448;-65
2024/02/09 08:25:11;;;;;;;14.32;8.45;;;10.10;99.90;;;;;;5042638;28;20589;-64
2024/02/09 08:27:37;;;;;;;4.17;3.23;;;10.10;99.90;;;;;;5042705;28;20178;-64
2024/02/09 08:30:04;;;;;;;3.70;2.60;;;10.10;99.90;;;;;;5041980;28;20421;-64
2024/02/09 08:32:30;;;;;;;2.47;2.30;;;10.10;99.90;;;;;;5047711;28;20416;-64
2024/02/09 08:34:56;;;;;;;1.80;1.70;;;10.10;99.90;;;;;;5053518;28;20412;-64
2024/02/09 08:37:24;;;;;;;2.33;2.23;;;10.10;99.90;;;;;;5053541;28;20248;-64
2024/02/09 08:39:50;;;;;;;4.90;2.10;;;10.10;99.90;;;;;;5053523;28;20416;-64
2024/02/09 08:42:16;;;;;;;3.80;1.50;;;10.10;99.90;;;;;;5054867;28;20443;-64
2024/02/09 08:44:42;;;;;;;1.57;0.90;;;10.10;99.90;;;;;;5055642;28;20408;-64
2024/02/09 08:47:10;;;;;;;10.33;3.10;;;10.10;99.90;;;;;;5055300;28;20460;-63
2024/02/09 08:49:36;;;;;;;2.87;2.67;;;10.10;99.90;;;;;;5056040;28;20174;-64
2024/02/09 08:52:02;;;;;;;1.80;1.67;;;10.10;99.90;;;;;;5055441;28;20462;-63
2024/02/09 08:54:29;;;;;;;2.43;1.90;;;10.10;99.90;;;;;;5055080;28;20413;-64
2024/02/09 08:56:59;;;;;;;3.23;2.07;;;10.10;99.90;;;;;;5054924;28;20530;-64
2024/02/09 08:59:25;;;;;;;3.43;2.57;;;10.30;99.90;;;;;;5055139;28;20401;-64
2024/02/09 09:01:51;;;;;;;2.70;2.30;;;10.40;99.90;;;;;;5055362;28;20423;-63
2024/02/09 09:04:18;;;;;;;2.53;1.73;;;10.40;99.90;;;;;;5054135;28;20417;-63
2024/02/09 09:06:44;;;;;;;2.63;2.40;;;10.50;99.90;;;;;;5053556;28;20439;-64
2024/02/09 09:09:11;;;;;;;1.83;1.73;;;10.50;99.90;;;;;;5055001;28;20446;-64
2024/02/09 09:11:36;;;;;;;2.20;1.63;;;10.50;99.90;;;;;;5055152;28;20405;-64
2024/02/09 09:14:03;;;;;;;1.77;1.67;;;10.50;99.90;;;;;;5054890;28;20412;-64
2024/02/09 09:16:29;;;;;;;2.20;1.43;;;10.60;99.90;;;;;;5055089;28;20227;-64
2024/02/09 09:18:54;;;;;;;2.07;1.87;;;10.70;99.90;;;;;;5054989;28;20409;-64
2024/02/09 09:21:20;;;;;;;3.10;1.90;;;10.90;99.90;;;;;;5053212;28;20800;-64
2024/02/09 09:23:46;;;;;;;1.70;1.60;;;11.00;99.90;;;;;;5053212;28;20182;-63
2024/02/09 09:26:11;;;;;;;2.40;1.97;;;11.10;99.90;;;;;;5053776;28;20201;-64
2024/02/09 09:28:37;;;;;;;4.77;2.30;;;11.20;99.90;;;;;;5053703;28;20178;-66
2024/02/09 09:31:04;;;;;;;4.27;1.93;;;11.30;99.90;;;;;;5047855;28;20220;-65
2024/02/09 09:33:32;;;;;;;4.87;2.50;;;11.50;99.90;;;;;;5051502;28;20281;-65
2024/02/09 09:36:00;;;;;;;2.70;1.70;;;11.60;99.90;;;;;;5051206;28;20476;-64
2024/02/09 09:38:26;;;;;;;3.87;2.20;;;11.70;99.90;;;;;;5087875;22;20531;-61
2024/02/09 09:40:55;;;;;;;2.73;2.50;;;11.90;99.90;;;;;;5052741;28;20415;-60
2024/02/09 09:43:24;;;;;;;1.80;1.70;;;12.00;99.90;;;;;;5051274;28;20460;-61
2024/02/09 09:45:56;;;;;;;3.73;2.07;;;12.10;99.90;;;;;;5060028;28;20458;-61
2024/02/09 09:48:24;;;;;;;1.93;1.70;;;12.30;99.90;;;;;;5067423;28;20431;-63
2024/02/09 09:50:52;;;;;;;6.93;1.70;;;12.40;99.90;;;;;;5052045;28;20492;-63
2024/02/09 09:53:26;;;;;;;2.37;2.00;;;12.50;99.90;;;;;;5056042;28;20482;-59
2024/02/09 09:55:53;;;;;;;2.20;1.13;;;12.70;99.90;;;;;;5071136;28;20411;-61
2024/02/09 09:58:22;;;;;;;2.27;1.47;;;12.70;99.90;;;;;;5070595;28;20431;-61
2024/02/09 10:00:49;;;;;;;1.93;1.07;;;12.70;99.90;;;;;;5065760;28;20465;-61
2024/02/09 10:03:17;;;;;;;2.87;2.20;;;12.70;99.90;;;;;;5066852;28;20450;-62
2024/02/09 10:05:44;;;;;;;5.37;2.80;;;12.60;99.90;;;;;;5071031;28;20430;-61
2024/02/09 10:08:12;;;;;;;2.60;2.40;;;12.40;99.90;;;;;;5067598;28;20430;-62
2024/02/09 10:10:39;;;;;;;2.30;2.10;;;12.30;99.90;;;;;;5055597;28;20416;-61
2024/02/09 10:13:08;;;;;;;2.07;1.90;;;12.10;99.90;;;;;;5057672;28;20404;-60
2024/02/09 10:15:33;;;;;;;3.60;2.20;;;12.10;99.90;;;;;;5058010;28;20182;-60
2024/02/09 10:18:01;;;;;;;2.03;1.83;;;12.10;99.90;;;;;;5057468;28;20460;-61
2024/02/09 10:20:28;;;;;;;1.30;1.20;;;12.10;99.90;;;;;;5057621;28;20212;-60
2024/02/09 10:22:54;;;;;;;2.30;0.90;;;12.00;99.90;;;;;;5057744;28;20499;-59
2024/02/09 10:25:21;;;;;;;1.93;0.83;;;11.90;99.90;;;;;;5057531;28;20492;-62
2024/02/09 10:27:50;;;;;;;0.67;0.67;;;11.60;99.90;;;;;;5057399;28;20205;-61
2024/02/09 10:30:17;;;;;;;0.67;0.60;;;11.50;99.90;;;;;;5073936;28;20799;-63
2024/02/09 10:32:43;;;;;;;1.83;1.30;;;11.50;99.90;;;;;;5077635;28;20434;-62
2024/02/09 10:35:09;;;;;;;0.70;0.57;;;11.50;99.90;;;;;;5077378;28;20465;-62
2024/02/09 10:37:35;;;;;;;2.47;0.80;;;11.50;99.90;;;;;;5075687;28;20864;-63
2024/02/09 10:40:03;;;;;;;5.70;1.20;;;11.50;99.90;;;;;;5077536;28;20423;-63
2024/02/09 10:42:30;;;;;;;1.57;0.87;;;11.50;99.90;;;;;;5077512;28;20511;-63
2024/02/09 10:44:57;;;;;;;1.87;1.13;;;11.60;99.90;;;;;;5076290;28;20452;-64
2024/02/09 10:47:26;;;;;;;3.97;0.90;;;11.50;99.90;;;;;;5077117;28;20533;-62
2024/02/09 10:49:57;;;;;;;1.33;0.90;;;11.60;99.90;;;;;;5077465;28;20445;-64
2024/02/09 10:52:26;;;;;;;1.13;0.80;;;11.70;99.90;;;;;;5077618;28;20403;-63
2024/02/09 10:54:56;;;;;;;0.87;0.70;;;11.70;99.90;;;;;;5076228;28;20857;-63
2024/02/09 10:57:25;;;;;;;0.70;0.70;;;11.60;99.90;;;;;;5074422;28;20471;-63
2024/02/09 10:59:51;;;;;;;0.83;0.83;;;11.60;99.90;;;;;;5073179;28;20431;-61
2024/02/09 11:02:18;;;;;;;1.43;0.83;;;11.60;99.90;;;;;;5077399;28;20922;-61
2024/02/09 11:04:44;;;;;;;2.73;2.50;;;11.60;99.90;;;;;;5077408;28;20404;-62
2024/02/09 11:07:15;;;;;;;2.97;2.70;;;11.60;99.90;;;;;;5077136;28;20427;-62
2024/02/09 11:09:43;;;;;;;4.93;3.27;;;11.60;99.90;;;;;;5077583;28;20414;-62
2024/02/09 11:12:12;;;;;;;2.83;2.63;;;11.60;99.90;;;;;;5076118;28;20425;-61
2024/02/09 11:14:38;;;;;;;3.10;2.60;;;11.50;99.90;;;;;;5077255;28;20491;-62
2024/02/09 11:17:08;;;;;;;2.17;1.97;;;11.60;99.90;;;;;;5074688;28;20546;-64
2024/02/09 11:19:40;;;;;;;2.97;2.50;;;11.60;99.90;;;;;;5069700;28;20192;-62
2024/02/09 11:22:07;;;;;;;1.77;1.67;;;11.70;99.90;;;;;;5065329;28;20419;-61
2024/02/09 11:24:36;;;;;;;4.63;1.90;;;11.70;99.90;;;;;;5065807;28;20419;-62
2024/02/09 11:27:03;;;;;;;2.03;1.63;;;11.80;99.90;;;;;;5053845;28;20432;-62
2024/02/09 11:29:37;;;;;;;2.77;2.57;;;11.90;99.90;;;;;;5062568;28;20427;-62
2024/02/09 11:32:05;;;;;;;3.27;2.97;;;11.90;99.90;;;;;;5063965;28;20761;-62
2024/02/09 11:34:35;;;;;;;1.87;1.77;;;11.90;99.90;;;;;;5072734;28;20430;-62
2024/02/09 11:37:01;;;;;;;1.70;1.60;;;12.00;99.90;;;;;;5065016;28;20490;-63
2024/02/09 11:39:28;;;;;;;1.53;1.40;;;12.00;99.90;;;;;;5065661;28;20988;-62
2024/02/09 11:41:54;;;;;;;2.30;2.10;;;12.10;99.90;;;;;;5070344;28;20181;-62
2024/02/09 11:44:24;;;;;;;2.10;1.93;;;12.10;99.90;;;;;;5072601;28;20497;-62
2024/02/09 11:46:53;;;;;;;2.80;2.60;;;12.20;99.90;;;;;;5067465;28;20432;-62
2024/02/09 11:49:21;;;;;;;4.40;2.87;;;12.20;99.90;;;;;;5067276;28;20441;-62
2024/02/09 11:51:47;;;;;;;2.40;2.20;;;12.20;99.90;;;;;;5073712;28;20415;-62
2024/02/09 11:54:14;;;;;;;2.33;2.13;;;12.20;99.90;;;;;;5073548;28;20407;-63
2024/02/09 11:56:44;;;;;;;2.37;1.83;;;12.10;99.90;;;;;;5073187;28;20459;-62
2024/02/09 11:59:11;;;;;;;1.60;1.50;;;12.10;99.90;;;;;;5068685;28;20419;-64
2024/02/09 12:01:39;;;;;;;3.50;1.83;;;12.10;99.90;;;;;;5069428;28;20905;-61
2024/02/09 12:04:05;;;;;;;3.20;2.67;;;12.00;99.90;;;;;;5065074;28;20901;-62
2024/02/09 12:06:31;;;;;;;2.63;2.17;;;11.90;99.90;;;;;;5073136;28;20396;-62
2024/02/09 12:08:56;;;;;;;2.40;2.20;;;11.90;99.90;;;;;;5073000;28;20408;-63
2024/02/09 12:11:23;;;;;;;2.27;2.07;;;11.90;99.90;;;;;;5072268;28;20185;-62
2024/02/09 12:13:49;;;;;;;2.23;2.00;;;11.90;99.90;;;;;;5064787;28;20551;-62
2024/02/09 12:16:16;;;;;;;3.27;2.90;;;11.80;99.90;;;;;;5072797;28;20459;-62
2024/02/09 12:19:00;;;;;;;2.97;2.33;;;11.90;99.90;;;;;;5073100;28;20929;-62
2024/02/09 12:21:28;;;;;;;3.63;2.00;;;12.00;99.90;;;;;;5073069;28;20946;-62
2024/02/09 12:23:54;;;;;;;1.60;1.37;;;12.00;99.90;;;;;;5073337;28;20803;-62
2024/02/09 12:26:20;;;;;;;3.03;2.60;;;12.20;99.90;;;;;;5072855;28;20439;-62
2024/02/09 12:28:47;;;;;;;2.50;1.87;;;12.20;99.90;;;;;;5072423;28;20478;-61
2024/02/09 12:31:16;;;;;;;3.83;1.50;;;12.30;99.90;;;;;;5072899;28;20422;-62
2024/02/09 12:33:46;;;;;;;1.93;1.83;;;12.20;99.90;;;;;;5072808;28;20416;-62
2024/02/09 12:36:20;;;;;;;3.57;1.67;;;12.10;99.90;;;;;;5072507;28;20512;-62
2024/02/09 12:38:57;;;;;;;2.30;1.30;;;12.20;99.90;;;;;;5072592;28;20990;-62
2024/02/09 12:41:24;;;;;;;1.00;1.00;;;12.10;99.90;;;;;;5072668;28;20483;-62
2024/02/09 12:43:56;;;;;;;2.83;1.40;;;12.10;99.90;;;;;;5072649;28;20449;-62
2024/02/09 12:46:24;;;;;;;1.50;1.40;;;12.10;99.90;;;;;;5072339;28;20403;-62
2024/02/09 12:48:50;;;;;;;1.60;1.47;;;12.30;99.90;;;;;;5072565;28;20441;-62
2024/02/09 12:51:17;;;;;;;1.33;1.23;;;12.40;99.90;;;;;;5072603;28;20416;-62
2024/02/09 12:53:43;;;;;;;2.40;1.67;;;12.50;99.90;;;;;;5071180;28;20421;-62
2024/02/09 12:56:10;;;;;;;2.10;1.80;;;12.50;99.90;;;;;;5072292;28;20451;-62
2024/02/09 12:58:35;;;;;;;1.60;1.50;;;12.50;99.90;;;;;;5072304;28;20224;-63
2024/02/09 13:01:03;;;;;;;3.60;1.77;;;12.50;99.90;;;;;;5072258;28;20439;-62
2024/02/09 13:03:29;;;;;;;1.40;1.30;;;12.50;99.90;;;;;;5072336;28;20219;-62
2024/02/09 13:05:54;;;;;;;4.00;1.60;;;12.50;99.90;;;;;;5072330;28;20409;-62
2024/02/09 13:08:23;;;;;;;2.40;1.90;;;12.50;99.90;;;;;;5072054;28;20603;-62
2024/02/09 13:10:49;;;;;;;1.60;1.40;;;12.60;99.90;;;;;;5072179;28;20174;-62
2024/02/09 13:13:16;;;;;;;3.80;1.50;;;12.70;99.90;;;;;;5072096;28;20499;-62
2024/02/09 13:15:42;;;;;;;2.40;1.53;;;12.70;99.90;;;;;;5071984;28;20416;-62
2024/02/09 13:18:08;;;;;;;2.13;2.00;;;12.80;99.90;;;;;;5071840;28;20960;-62
2024/02/09 13:20:37;;;;;;;2.53;2.00;;;12.90;99.90;;;;;;5072036;28;20404;-62
2024/02/09 13:23:04;;;;;;;2.77;2.37;;;12.80;99.90;;;;;;5072056;28;20184;-62
2024/02/09 13:25:36;;;;;;;2.57;2.40;;;12.70;99.90;;;;;;5071959;28;20415;-62
2024/02/09 13:28:04;;;;;;;5.80;3.80;;;12.60;99.90;;;;;;5071481;28;20909;-62
2024/02/09 13:30:30;;;;;;;3.87;3.40;;;12.60;99.90;;;;;;5072020;28;20416;-62
2024/02/09 13:32:57;;;;;;;1.70;1.60;;;12.70;99.90;;;;;;5071888;28;20913;-62
2024/02/09 13:35:24;;;;;;;2.10;2.00;;;12.60;99.90;;;;;;5071901;28;20489;-62
2024/02/09 13:37:50;;;;;;;4.43;3.17;;;12.60;99.90;;;;;;5071261;28;20478;-62
2024/02/09 13:40:17;;;;;;;1.70;1.60;;;12.60;99.90;;;;;;5070994;28;20400;-62
2024/02/09 13:42:47;;;;;;;2.03;0.93;;;12.70;99.90;;;;;;5071566;28;20408;-62
2024/02/09 13:45:17;;;;;;;1.23;1.13;;;12.50;99.90;;;;;;5071685;28;20418;-62
2024/02/09 13:47:43;;;;;;;1.50;1.40;;;12.50;99.90;;;;;;5071486;28;20427;-62
2024/02/09 13:50:14;;;;;;;1.10;1.00;;;12.50;99.90;;;;;;5071931;28;20912;-62
2024/02/09 13:52:45;;;;;;;2.43;1.10;;;12.50;99.90;;;;;;5071749;28;20419;-62
2024/02/09 13:55:14;;;;;;;1.47;1.00;;;12.50;99.90;;;;;;5071497;28;20503;-63
2024/02/09 13:57:45;;;;;;;2.73;1.13;;;12.40;99.90;;;;;;5071144;28;20456;-62
2024/02/09 14:00:13;;;;;;;1.00;1.00;;;12.20;99.90;;;;;;5071645;28;20779;-62
2024/02/09 14:02:42;;;;;;;0.63;0.63;;;12.10;99.90;;;;;;5071584;28;20764;-62
2024/02/09 14:05:08;;;;;;;1.90;1.20;;;12.10;99.90;;;;;;5071490;28;20470;-62
2024/02/09 14:07:38;;;;;;;3.57;2.90;;;12.10;99.90;;;;;;5071075;28;20462;-62
2024/02/09 14:10:14;;;;;;;5.00;3.30;;;12.10;99.90;;;;;;5071582;28;20450;-62
2024/02/09 14:12:40;;;;;;;1.60;1.50;;;12.10;99.90;;;;;;5071511;28;20418;-62
2024/02/09 14:15:08;;;;;;;7.17;4.33;;;12.00;99.90;;;;;;5071461;28;20404;-62
2024/02/09 14:17:35;;;;;;;1.73;1.63;;;12.10;99.90;;;;;;5070977;28;20647;-62
2024/02/09 14:20:01;;;;;;;1.07;1.07;;;12.00;99.90;;;;;;5071243;28;20404;-62
2024/02/09 14:22:28;;;;;;;1.63;1.10;;;11.90;99.90;;;;;;5071253;28;20436;-62
2024/02/09 14:24:56;;;;;;;1.20;1.00;;;11.90;99.90;;;;;;5071260;28;20407;-62
2024/02/09 14:27:23;;;;;;;1.23;1.03;;;11.80;99.90;;;;;;5070868;28;20954;-62
2024/02/09 14:29:50;;;;;;;0.73;0.70;;;11.80;99.90;;;;;;5069965;28;20418;-62
2024/02/09 14:32:15;;;;;;;0.77;0.77;;;11.80;99.90;;;;;;5071179;28;20404;-62
2024/02/09 14:34:43;;;;;;;1.23;1.13;;;11.70;99.90;;;;;;5070989;28;20420;-62
2024/02/09 14:37:09;;;;;;;6.17;5.67;;;11.70;99.90;;;;;;5070577;28;20292;-63
2024/02/09 14:39:36;;;;;;;5.60;5.20;;;11.80;99.90;;;;;;5071199;28;20503;-62